Other Surface Observations
Issued by NWS Great Falls, MT

Home | Current Version | Previous Version | Text Only | Print | Product List | Glossary On
Versions: 1 2 3 4 5 6 7 8 9 10 11 12 13 14 15 16 17 18 19 20 21 22 23 24 25 26 27 28 29 30 31 32 33 34 35 36 37 38 39 40 41 42 43 44 45 46 47 48 49 50
000
SXUS55 KTFX 160421
OSOTFX

AREA AWOS OBSERVATIONS
NATIONAL WEATHER SERVICE GREAT FALLS MT
1020 PM MDT Tue Apr 15 2014

METAR K1S3 160415Z AUTO 25008KT 10SM 07/03 A2967
METAR K38S 160415Z AUTO 00000KT 10SM 02/M03 A2996
METAR K6S0 160415Z AUTO 22019G30KT 10SM 03/M02 A2982
METAR K6S5 160415Z AUTO 00000KT 10SM 07/M05 A2997
METAR K79S 160415Z AUTO 29016G21KT 06/01 A2983
METAR K88M 160415Z AUTO 14003KT 10SM 04/02 A2988
METAR KEKS 160415Z AUTO 29009KT 10SM 03/M08 A2996
METAR KPO1 160415Z AUTO 02005KT 10SM 03/M05 A2968
METAR KPWD 160415Z AUTO 05012G19KT 10SM M01/M07 A2976
METAR KS59 160415Z AUTO 26003KT 10SM 01/M01 A2992



USA.gov is the U.S. government's official web portal to all federal, state and local government web resources and services.